Time;durP1;ratioP1;P1;durP2;ratioP2;P2;SDS_P1;SDS_P2;PMS_P1;PMS_P2;Temp;Humidity;BMP_temperature;BMP_pressure;BME280_temperature;BME280_humidity;BME280_pressure;Samples;Min_cycle;Max_cycle;Signal;HPM_P1;HPM_P2
2022/07/24 00:00:15;;;;;;;8.60;6.38;;;13.90;1.00;;;;;;5028516;28;20052;-82
2022/07/24 00:02:41;;;;;;;8.43;6.13;;;13.90;1.00;;;;;;5054050;28;20044;-82
2022/07/24 00:05:07;;;;;;;9.02;6.60;;;13.90;1.00;;;;;;5053421;28;20116;-82
2022/07/24 00:07:34;;;;;;;8.90;7.13;;;14.00;11.30;;;;;;5033757;28;20041;-82
2022/07/24 00:10:00;;;;;;;11.30;7.10;;;14.00;1.00;;;;;;5030112;28;20013;-82
2022/07/24 00:12:26;;;;;;;9.30;7.18;;;14.00;16.80;;;;;;5056735;28;20048;-82
2022/07/24 00:14:51;;;;;;;9.30;7.28;;;14.00;1.00;;;;;;5045002;28;20377;-82
2022/07/24 00:17:17;;;;;;;8.80;6.07;;;14.10;1.00;;;;;;5036177;28;20392;-82
2022/07/24 00:19:42;;;;;;;10.40;7.10;;;14.00;1.00;;;;;;5035195;28;20509;-82
2022/07/24 00:22:08;;;;;;;8.73;7.15;;;13.90;1.00;;;;;;5049474;28;20017;-82
2022/07/24 00:24:34;;;;;;;8.60;6.40;;;13.90;1.00;;;;;;5035366;28;20030;-81
2022/07/24 00:27:00;;;;;;;9.63;7.35;;;13.90;1.00;;;;;;5035480;28;20029;-82
2022/07/24 00:29:26;;;;;;;8.10;6.75;;;13.80;1.00;;;;;;5026890;28;20454;-82
2022/07/24 00:31:52;;;;;;;9.27;6.65;;;13.90;1.00;;;;;;5018357;28;20048;-82
2022/07/24 00:34:17;;;;;;;8.35;6.57;;;13.80;1.00;;;;;;5035782;28;20053;-83
2022/07/24 00:36:43;;;;;;;9.05;6.93;;;13.90;1.00;;;;;;5036609;28;20048;-82
2022/07/24 00:39:09;;;;;;;9.07;6.70;;;13.80;1.00;;;;;;5030143;28;20033;-81
2022/07/24 00:41:35;;;;;;;10.25;7.35;;;13.90;1.00;;;;;;5038192;28;20104;-82
2022/07/24 00:44:05;;;;;;;10.40;7.60;;;13.90;1.00;;;;;;5038198;28;20364;-81
2022/07/24 00:46:32;;;;;;;10.23;7.07;;;14.00;1.00;;;;;;5037218;28;20029;-82
2022/07/24 00:48:58;;;;;;;8.95;6.85;;;14.00;4.20;;;;;;5028438;28;20060;-82
2022/07/24 00:51:24;;;;;;;10.73;7.20;;;13.90;1.00;;;;;;5042165;28;20022;-82
2022/07/24 00:53:49;;;;;;;9.32;6.70;;;14.00;9.10;;;;;;5034399;28;20034;-83
2022/07/24 00:56:15;;;;;;;9.38;6.88;;;13.90;1.00;;;;;;5047936;28;20025;-82
2022/07/24 00:58:41;;;;;;;9.70;7.25;;;13.90;1.00;;;;;;5040840;28;20057;-82
2022/07/24 01:01:06;;;;;;;9.40;7.75;;;14.00;1.00;;;;;;5041653;28;20113;-81
2022/07/24 01:03:32;;;;;;;9.63;7.15;;;14.00;1.00;;;;;;5038911;28;20611;-82
2022/07/24 01:05:58;;;;;;;9.55;7.32;;;13.90;1.00;;;;;;5036044;28;20030;-82
2022/07/24 01:08:24;;;;;;;12.73;7.53;;;14.10;3.10;;;;;;5019022;28;20064;-81
2022/07/24 01:10:50;;;;;;;8.90;7.03;;;14.00;1.00;;;;;;5021061;28;20060;-82
2022/07/24 01:13:16;;;;;;;10.13;7.53;;;14.00;1.00;;;;;;5024814;28;20535;-82
2022/07/24 01:15:41;;;;;;;10.68;7.20;;;14.20;1.00;;;;;;5019421;28;20122;-82
2022/07/24 01:18:07;;;;;;;11.85;7.40;;;14.10;1.00;;;;;;5018315;28;20145;-82
2022/07/24 01:20:37;;;;;;;10.50;7.88;;;14.40;16.30;;;;;;5018216;28;20468;-82
2022/07/24 01:23:02;;;;;;;10.65;7.45;;;14.30;1.00;;;;;;5016620;28;20482;-81
2022/07/24 01:25:28;;;;;;;10.73;6.93;;;14.20;1.00;;;;;;5018173;28;20041;-82
2022/07/24 01:27:54;;;;;;;10.13;7.13;;;14.30;1.00;;;;;;5036791;28;20099;-82
2022/07/24 01:30:19;;;;;;;10.32;7.65;;;14.20;1.00;;;;;;5023938;28;20077;-82
2022/07/24 01:32:45;;;;;;;8.75;7.22;;;14.30;7.80;;;;;;5028163;28;20045;-83
2022/07/24 01:35:13;;;;;;;10.57;7.93;;;14.40;21.00;;;;;;5038897;28;20029;-83
2022/07/24 01:37:38;;;;;;;9.38;7.10;;;14.30;1.00;;;;;;5029233;28;20030;-82
2022/07/24 01:40:05;;;;;;;12.85;7.55;;;14.30;19.10;;;;;;5020608;28;20037;-83
2022/07/24 01:42:30;;;;;;;9.18;7.43;;;14.40;20.10;;;;;;5039423;28;20030;-82
2022/07/24 01:44:56;;;;;;;10.63;8.10;;;14.40;1.00;;;;;;5033324;28;20037;-82
2022/07/24 01:47:21;;;;;;;13.02;7.43;;;14.50;22.80;;;;;;5030464;28;20034;-82
2022/07/24 01:49:47;;;;;;;11.68;7.60;;;14.40;1.00;;;;;;5033735;28;20063;-82
2022/07/24 01:52:13;;;;;;;11.82;7.95;;;14.50;29.70;;;;;;5037310;28;20369;-83
2022/07/24 01:54:38;;;;;;;10.18;7.47;;;14.50;11.30;;;;;;5038369;28;20029;-82
2022/07/24 01:57:04;;;;;;;10.38;6.97;;;14.40;1.00;;;;;;5038695;28;20108;-82
2022/07/24 01:59:30;;;;;;;9.48;7.63;;;14.40;1.00;;;;;;5031907;28;20033;-82
2022/07/24 02:02:13;;;;;;;8.98;7.70;;;14.40;1.00;;;;;;5025246;28;20078;-82
2022/07/24 02:04:47;;;;;;;9.38;7.25;;;14.40;7.40;;;;;;5017302;28;20021;-82
2022/07/24 02:07:13;;;;;;;10.13;7.63;;;14.40;1.00;;;;;;5030615;28;20104;-82
2022/07/24 02:09:47;;;;;;;12.52;7.70;;;14.40;1.00;;;;;;5036863;28;20056;-82
2022/07/24 02:12:13;;;;;;;11.05;7.75;;;14.40;1.00;;;;;;5036975;28;20056;-82
2022/07/24 02:14:38;;;;;;;9.20;7.45;;;14.40;1.90;;;;;;5038091;28;20033;-82
2022/07/24 02:17:11;;;;;;;12.15;7.28;;;14.40;1.00;;;;;;5036852;28;20035;-82
2022/07/24 02:19:37;;;;;;;11.27;7.38;;;14.40;1.00;;;;;;5036782;28;20056;-82
2022/07/24 02:22:11;;;;;;;10.55;7.57;;;14.40;5.50;;;;;;5036190;28;20026;-83
2022/07/24 02:24:36;;;;;;;10.73;7.57;;;14.40;13.80;;;;;;5028696;28;20037;-82
2022/07/24 02:27:02;;;;;;;12.60;8.38;;;14.40;9.60;;;;;;5037479;28;20080;-82
2022/07/24 02:29:27;;;;;;;12.05;7.80;;;14.50;30.00;;;;;;5053015;28;20075;-82
2022/07/24 02:31:53;;;;;;;10.80;7.85;;;14.40;1.70;;;;;;5036181;28;20715;-81
2022/07/24 02:34:19;;;;;;;10.82;7.97;;;14.30;1.00;;;;;;5036867;28;20065;-83
2022/07/24 02:36:44;;;;;;;9.27;7.53;;;14.30;15.50;;;;;;5037131;28;20104;-82
2022/07/24 02:39:10;;;;;;;11.68;8.13;;;14.30;20.60;;;;;;5053628;28;20039;-82
2022/07/24 02:41:36;;;;;;;9.68;7.55;;;14.20;4.40;;;;;;5041653;28;20040;-82
2022/07/24 02:44:01;;;;;;;9.85;7.13;;;14.20;1.00;;;;;;5036691;28;20025;-82
2022/07/24 02:46:27;;;;;;;11.10;8.05;;;14.20;2.90;;;;;;5022257;28;20100;-82
2022/07/24 02:48:52;;;;;;;11.93;8.50;;;14.20;7.30;;;;;;5033387;28;20021;-82
2022/07/24 02:51:18;;;;;;;12.27;7.95;;;14.20;1.00;;;;;;5036553;28;20025;-82
2022/07/24 02:53:43;;;;;;;11.65;8.50;;;14.20;12.00;;;;;;5036316;28;20025;-82
2022/07/24 02:56:09;;;;;;;10.07;7.80;;;14.20;6.70;;;;;;5036974;28;20037;-82
2022/07/24 02:58:35;;;;;;;12.70;7.85;;;14.20;10.70;;;;;;5037160;28;20030;-82
2022/07/24 03:01:01;;;;;;;12.20;8.80;;;14.20;1.00;;;;;;5045246;28;20014;-82
2022/07/24 03:03:26;;;;;;;11.43;8.98;;;14.30;2.90;;;;;;5045494;28;20107;-82
2022/07/24 03:05:52;;;;;;;10.55;8.57;;;14.30;28.50;;;;;;5042867;28;20128;-82
2022/07/24 03:08:18;;;;;;;12.82;8.55;;;14.30;15.70;;;;;;5038141;28;20112;-82
2022/07/24 03:10:43;;;;;;;12.57;8.23;;;14.30;5.50;;;;;;5034193;28;20092;-82
2022/07/24 03:13:09;;;;;;;9.68;7.78;;;14.30;15.10;;;;;;5036045;28;20022;-82
2022/07/24 03:15:34;;;;;;;13.40;8.43;;;14.30;15.50;;;;;;5037912;28;20033;-81
2022/07/24 03:18:02;;;;;;;11.88;8.40;;;14.30;15.60;;;;;;5036802;28;20053;-82
2022/07/24 03:20:28;;;;;;;10.18;8.35;;;14.30;11.40;;;;;;5036390;28;20071;-82
2022/07/24 03:22:55;;;;;;;13.95;9.00;;;14.30;21.30;;;;;;5035815;28;20040;-82
2022/07/24 03:25:21;;;;;;;11.45;8.55;;;14.40;40.30;;;;;;5036840;28;20029;-81
2022/07/24 03:27:49;;;;;;;10.50;8.77;;;14.50;46.50;;;;;;5036029;28;20025;-82
2022/07/24 03:30:16;;;;;;;12.43;8.80;;;14.40;30.20;;;;;;5036524;28;20025;-82
2022/07/24 03:32:42;;;;;;;10.73;8.23;;;14.50;30.60;;;;;;5036950;28;20049;-83
2022/07/24 03:35:08;;;;;;;11.18;9.38;;;14.40;25.50;;;;;;5035376;28;20064;-82
2022/07/24 03:37:33;;;;;;;13.60;8.65;;;14.50;42.20;;;;;;5016421;28;20041;-82
2022/07/24 03:39:59;;;;;;;11.55;8.95;;;14.40;29.70;;;;;;5020819;28;20355;-82
2022/07/24 03:42:24;;;;;;;14.13;9.00;;;14.40;36.80;;;;;;5036212;28;20032;-82
2022/07/24 03:44:50;;;;;;;12.85;9.93;;;14.30;38.90;;;;;;5035113;28;20036;-81
2022/07/24 03:47:16;;;;;;;12.80;9.15;;;14.40;49.90;;;;;;5027070;28;20029;-81
2022/07/24 03:49:41;;;;;;;14.32;9.50;;;14.40;50.20;;;;;;5025496;28;20033;-81
2022/07/24 03:52:09;;;;;;;11.05;9.05;;;14.40;51.90;;;;;;5014337;28;20026;-82
2022/07/24 03:54:35;;;;;;;13.23;9.30;;;14.50;57.90;;;;;;5015591;28;20513;-82
2022/07/24 03:57:00;;;;;;;15.82;9.30;;;14.60;52.90;;;;;;5018926;28;20034;-82
2022/07/24 03:59:26;;;;;;;11.68;8.60;;;14.60;72.40;;;;;;5033570;28;20030;-81
2022/07/24 04:01:52;;;;;;;12.63;9.25;;;14.50;56.40;;;;;;5038528;28;20032;-81
2022/07/24 04:04:18;;;;;;;11.82;9.00;;;14.60;55.60;;;;;;5037153;28;20064;-81
2022/07/24 04:06:43;;;;;;;10.77;8.65;;;14.40;25.80;;;;;;5033364;28;20033;-82
2022/07/24 04:09:09;;;;;;;11.50;8.90;;;14.70;63.00;;;;;;5038117;28;20057;-81
2022/07/24 04:11:35;;;;;;;13.23;10.02;;;14.60;44.50;;;;;;5038903;28;20029;-82
2022/07/24 04:14:01;;;;;;;14.60;10.15;;;14.70;70.10;;;;;;5034053;28;20018;-82
2022/07/24 04:16:26;;;;;;;12.27;10.20;;;14.90;80.10;;;;;;5039496;28;20140;-81
2022/07/24 04:18:52;;;;;;;13.82;10.02;;;14.80;58.90;;;;;;5038552;28;20037;-82
2022/07/24 04:21:18;;;;;;;14.77;10.07;;;14.80;39.90;;;;;;5025327;28;20534;-82
2022/07/24 04:23:43;;;;;;;14.35;9.68;;;14.90;49.70;;;;;;5033209;28;20017;-82
2022/07/24 04:26:09;;;;;;;13.77;9.50;;;15.00;39.00;;;;;;5033645;28;20038;-82
2022/07/24 04:28:35;;;;;;;12.43;9.70;;;15.10;42.00;;;;;;5037204;28;20028;-82
2022/07/24 04:31:01;;;;;;;13.65;9.52;;;15.00;59.70;;;;;;5042601;28;20026;-82
2022/07/24 04:33:26;;;;;;;15.55;9.98;;;15.20;15.50;;;;;;5043342;28;20478;-83
2022/07/24 04:35:52;;;;;;;14.48;9.73;;;15.30;50.20;;;;;;5041244;28;20033;-83
2022/07/24 04:38:17;;;;;;;13.23;10.43;;;15.50;41.90;;;;;;5029709;28;20141;-82
2022/07/24 04:40:43;;;;;;;18.15;10.50;;;15.70;56.60;;;;;;5031730;28;20022;-81
2022/07/24 04:43:09;;;;;;;15.45;10.02;;;16.20;18.00;;;;;;5042246;28;20156;-83
2022/07/24 04:45:34;;;;;;;13.38;10.20;;;17.50;1.00;;;;;;5040681;28;20040;-83
2022/07/24 04:48:00;;;;;;;12.02;9.32;;;18.40;1.00;;;;;;5030910;28;20112;-83
2022/07/24 04:50:26;;;;;;;12.73;10.27;;;18.70;1.00;;;;;;5038908;28;20030;-83
2022/07/24 04:52:51;;;;;;;12.02;9.85;;;18.60;1.00;;;;;;5040606;28;20029;-83
2022/07/24 04:55:17;;;;;;;14.13;9.70;;;19.10;1.00;;;;;;5041001;28;20033;-83
2022/07/24 04:57:43;;;;;;;11.85;9.38;;;18.70;1.00;;;;;;5041884;28;20021;-83
2022/07/24 05:00:11;;;;;;;12.00;9.57;;;18.10;1.00;;;;;;5025351;28;20026;-83
2022/07/24 05:02:37;;;;;;;13.63;9.90;;;17.50;1.00;;;;;;5025458;28;20053;-83
2022/07/24 05:05:03;;;;;;;12.30;9.75;;;17.50;1.00;;;;;;5041103;28;20072;-83
2022/07/24 05:07:29;;;;;;;12.10;9.40;;;19.20;1.00;;;;;;5041461;28;20116;-83
2022/07/24 05:09:55;;;;;;;13.70;9.50;;;21.60;99.90;;;;;;5041240;28;20460;-83
2022/07/24 05:12:20;;;;;;;11.65;8.98;;;22.60;99.90;;;;;;5041699;28;20377;-83
2022/07/24 05:14:46;;;;;;;13.43;9.70;;;23.70;99.90;;;;;;5041867;28;20025;-83
2022/07/24 05:17:11;;;;;;;9.50;8.50;;;24.10;99.90;;;;;;5041875;28;20032;-82
2022/07/24 05:19:37;;;;;;;10.43;8.68;;;25.50;99.90;;;;;;5040810;28;20047;-83
2022/07/24 05:22:03;;;;;;;12.15;8.98;;;26.90;99.90;;;;;;5039726;28;20116;-82
2022/07/24 05:24:29;;;;;;;11.93;9.45;;;25.50;99.90;;;;;;5039689;28;20056;-83
2022/07/24 05:26:54;;;;;;;11.02;9.10;;;27.20;99.90;;;;;;5039956;28;20031;-82
2022/07/24 05:29:20;;;;;;;10.32;9.10;;;28.80;99.90;;;;;;5039913;28;20026;-83
2022/07/24 05:31:46;;;;;;;13.50;9.57;;;30.30;99.90;;;;;;5040190;28;20041;-83
2022/07/24 05:34:12;;;;;;;11.60;9.30;;;31.30;99.90;;;;;;5039783;28;20053;-84
2022/07/24 05:36:37;;;;;;;11.80;9.70;;;29.10;99.90;;;;;;5040197;28;20052;-84
2022/07/24 05:39:04;;;;;;;13.40;9.82;;;28.70;99.90;;;;;;5040710;28;20076;-84
2022/07/24 05:41:29;;;;;;;11.52;9.68;;;30.10;99.90;;;;;;5036377;28;20508;-83
2022/07/24 05:43:55;;;;;;;11.18;10.02;;;28.60;99.90;;;;;;5036444;28;20061;-82
2022/07/24 05:46:20;;;;;;;12.00;9.70;;;27.10;99.90;;;;;;5036569;28;20074;-83
2022/07/24 05:48:46;;;;;;;12.20;10.30;;;27.10;99.90;;;;;;5027684;28;20018;-82
2022/07/24 05:51:12;;;;;;;11.63;9.90;;;26.90;99.90;;;;;;5016217;28;20026;-83
2022/07/24 05:53:37;;;;;;;11.70;10.25;;;26.10;99.90;;;;;;5016317;28;20044;-84
2022/07/24 05:56:04;;;;;;;13.02;11.00;;;30.80;99.90;;;;;;5016359;28;20026;-83
2022/07/24 05:58:30;;;;;;;12.88;10.85;;;33.70;99.90;;;;;;5024703;28;20049;-83
2022/07/24 06:00:55;;;;;;;12.88;10.45;;;33.10;99.90;;;;;;5036239;28;20044;-83
2022/07/24 06:03:21;;;;;;;10.35;9.35;;;32.50;99.90;;;;;;5036015;28;20561;-83
2022/07/24 06:05:47;;;;;;;11.90;8.77;;;32.50;99.90;;;;;;5035806;28;20362;-82
2022/07/24 06:08:12;;;;;;;11.77;8.10;;;30.00;99.90;;;;;;5035893;28;20435;-83
2022/07/24 06:10:38;;;;;;;8.65;6.88;;;28.30;99.90;;;;;;5034657;28;20029;-83
2022/07/24 06:13:04;;;;;;;8.20;5.90;;;31.70;99.90;;;;;;5014649;28;20036;-83
2022/07/24 06:15:29;;;;;;;7.97;4.90;;;35.50;99.90;;;;;;5016003;28;20425;-83
2022/07/24 06:17:55;;;;;;;7.55;4.50;;;35.60;99.90;;;;;;5032163;28;20025;-84
2022/07/24 06:20:21;;;;;;;9.80;5.20;;;32.40;99.90;;;;;;5055777;28;20017;-83
2022/07/24 06:22:46;;;;;;;10.60;4.53;;;32.50;99.90;;;;;;5055483;28;20483;-82
2022/07/24 06:25:12;;;;;;;7.50;4.78;;;33.40;99.90;;;;;;5040598;28;20413;-83
2022/07/24 06:27:45;;;;;;;7.22;4.60;;;36.60;99.90;;;;;;5035798;28;20051;-83
2022/07/24 06:30:16;;;;;;;7.28;4.50;;;36.90;99.90;;;;;;5035418;28;20040;-83
2022/07/24 06:32:43;;;;;;;7.97;4.28;;;38.10;99.90;;;;;;5035210;28;20045;-83
2022/07/24 06:35:09;;;;;;;6.20;4.30;;;37.90;99.90;;;;;;5020579;28;20095;-83
2022/07/24 06:37:34;;;;;;;7.38;4.60;;;35.00;99.90;;;;;;5016066;28;20612;-84
2022/07/24 06:40:00;;;;;;;7.38;4.30;;;31.70;99.90;;;;;;5018720;28;20380;-83
2022/07/24 06:42:26;;;;;;;5.50;4.20;;;29.80;99.90;;;;;;5035470;28;20025;-83
2022/07/24 06:44:51;;;;;;;6.90;3.90;;;29.20;99.90;;;;;;5035280;28;20376;-83
2022/07/24 06:47:17;;;;;;;6.38;4.05;;;28.30;99.90;;;;;;5035702;28;20103;-83
2022/07/24 06:49:42;;;;;;;5.95;4.00;;;27.80;99.90;;;;;;5035099;28;20041;-84
2022/07/24 06:52:08;;;;;;;6.57;3.90;;;27.30;99.90;;;;;;5034835;28;20025;-83
2022/07/24 06:54:33;;;;;;;4.53;3.85;;;26.80;99.90;;;;;;5048879;28;20108;-83
2022/07/24 06:56:59;;;;;;;6.65;4.68;;;26.60;99.90;;;;;;5034948;28;20029;-83
2022/07/24 06:59:24;;;;;;;7.05;4.43;;;26.40;99.90;;;;;;5019931;28;20470;-83
2022/07/24 07:01:51;;;;;;;4.43;3.88;;;26.00;99.90;;;;;;5015041;28;20022;-83
2022/07/24 07:04:17;;;;;;;6.78;4.07;;;26.00;99.90;;;;;;5030830;28;20022;-83
2022/07/24 07:06:42;;;;;;;5.80;4.15;;;26.00;99.90;;;;;;5054763;28;20040;-83
2022/07/24 07:09:08;;;;;;;8.65;4.68;;;26.10;99.90;;;;;;5053363;28;20108;-83
2022/07/24 07:11:33;;;;;;;6.70;4.50;;;26.40;99.90;;;;;;5034872;28;20030;-83
2022/07/24 07:13:59;;;;;;;5.82;4.28;;;26.40;99.90;;;;;;5035484;28;20029;-83
2022/07/24 07:16:24;;;;;;;6.90;4.65;;;26.40;99.90;;;;;;5034914;28;20029;-83
2022/07/24 07:18:50;;;;;;;5.18;4.15;;;26.20;99.90;;;;;;5035320;28;20374;-83
2022/07/24 07:21:16;;;;;;;5.93;4.00;;;26.00;99.90;;;;;;5034879;28;20108;-83
2022/07/24 07:23:42;;;;;;;5.13;3.80;;;26.10;99.90;;;;;;5034328;28;20057;-83
2022/07/24 07:26:07;;;;;;;7.68;4.05;;;25.60;99.90;;;;;;5034650;28;20060;-83
2022/07/24 07:28:33;;;;;;;5.70;3.78;;;25.40;99.90;;;;;;5034262;28;20068;-83
2022/07/24 07:30:58;;;;;;;6.30;3.90;;;25.10;99.90;;;;;;5034342;28;20026;-83
2022/07/24 07:33:26;;;;;;;6.28;4.13;;;25.30;99.90;;;;;;5034547;28;20689;-83
2022/07/24 07:35:52;;;;;;;4.13;3.75;;;25.20;99.90;;;;;;5035367;28;20040;-84
2022/07/24 07:38:17;;;;;;;6.15;4.18;;;24.90;99.90;;;;;;5034749;28;20481;-83
2022/07/24 07:40:43;;;;;;;6.78;3.88;;;25.30;99.90;;;;;;5034437;28;20025;-83
2022/07/24 07:43:09;;;;;;;6.10;3.83;;;25.20;99.90;;;;;;5034470;28;20025;-83
2022/07/24 07:45:34;;;;;;;4.90;3.75;;;25.30;99.90;;;;;;5034598;28;20473;-83
2022/07/24 07:48:00;;;;;;;3.90;3.50;;;28.50;99.90;;;;;;5034565;28;20064;-83
2022/07/24 07:50:26;;;;;;;5.03;3.78;;;35.10;99.90;;;;;;5032682;28;20108;-82
2022/07/24 07:52:51;;;;;;;4.30;3.50;;;34.40;99.90;;;;;;5034217;28;20029;-83
2022/07/24 07:55:17;;;;;;;3.60;3.13;;;38.50;99.90;;;;;;5044479;28;20025;-83
2022/07/24 07:57:43;;;;;;;7.43;3.88;;;36.90;99.90;;;;;;5036999;28;20063;-83
2022/07/24 08:00:10;;;;;;;4.38;3.08;;;38.10;99.90;;;;;;5034887;28;20108;-84
2022/07/24 08:02:36;;;;;;;2.97;2.65;;;37.90;99.90;;;;;;5034177;28;20619;-83
2022/07/24 08:05:02;;;;;;;6.43;3.40;;;38.30;99.90;;;;;;5033975;28;20457;-83
2022/07/24 08:07:27;;;;;;;3.42;2.90;;;36.80;99.90;;;;;;5034650;28;20547;-83
2022/07/24 08:09:53;;;;;;;3.28;2.78;;;38.20;99.90;;;;;;5034563;28;20109;-83
2022/07/24 08:12:18;;;;;;;3.83;2.92;;;41.10;99.90;;;;;;5034668;28;20029;-83
2022/07/24 08:14:44;;;;;;;3.40;2.58;;;42.50;99.90;;;;;;5033967;28;20033;-83
2022/07/24 08:17:09;;;;;;;5.50;2.50;;;43.50;99.90;;;;;;5032775;28;20485;-83
2022/07/24 08:19:35;;;;;;;3.75;2.83;;;44.10;99.90;;;;;;5023191;28;20022;-84
2022/07/24 08:22:01;;;;;;;3.25;2.25;;;43.40;99.90;;;;;;5033877;28;20025;-84
2022/07/24 08:24:27;;;;;;;4.75;2.80;;;44.20;99.90;;;;;;5033267;28;20080;-83
2022/07/24 08:26:52;;;;;;;4.32;2.88;;;45.30;99.90;;;;;;5034412;28;20029;-83
2022/07/24 08:29:18;;;;;;;4.88;2.50;;;45.90;99.90;;;;;;5054082;28;20036;-84
2022/07/24 08:31:43;;;;;;;2.90;2.45;;;44.30;99.90;;;;;;5054123;28;20025;-84
2022/07/24 08:34:09;;;;;;;4.10;2.40;;;44.60;99.90;;;;;;5055209;28;20053;-84
2022/07/24 08:36:35;;;;;;;4.47;2.83;;;44.20;99.90;;;;;;5040723;28;20022;-84
2022/07/24 08:39:02;;;;;;;3.80;2.33;;;45.70;99.90;;;;;;5035492;28;20057;-83
2022/07/24 08:41:32;;;;;;;3.95;2.60;;;43.50;99.90;;;;;;5038129;28;20466;-84
2022/07/24 08:43:59;;;;;;;6.72;2.78;;;44.30;99.90;;;;;;5047206;28;20025;-83
2022/07/24 08:46:26;;;;;;;4.13;2.65;;;45.70;99.90;;;;;;5053698;28;20025;-84
2022/07/24 08:48:53;;;;;;;2.60;2.28;;;45.20;99.90;;;;;;5044651;28;20488;-83
2022/07/24 08:51:19;;;;;;;4.25;2.42;;;45.60;99.90;;;;;;5036562;28;20112;-84
2022/07/24 08:53:47;;;;;;;5.93;2.78;;;45.50;99.90;;;;;;5033975;28;20435;-83
2022/07/24 08:56:12;;;;;;;3.05;2.60;;;45.00;99.90;;;;;;5035029;28;20067;-84
2022/07/24 08:58:39;;;;;;;2.70;2.35;;;44.90;99.90;;;;;;5033966;28;20101;-83
2022/07/24 09:01:05;;;;;;;4.07;2.50;;;46.10;99.90;;;;;;5035280;28;20075;-85
2022/07/24 09:03:45;;;;;;;4.55;2.42;;;45.10;99.90;;;;;;5035540;28;20469;-84
2022/07/24 09:06:13;;;;;;;5.40;2.38;;;43.90;99.90;;;;;;5023220;28;20033;-84
2022/07/24 09:08:42;;;;;;;4.45;2.58;;;45.10;99.90;;;;;;5044081;28;20013;-85
2022/07/24 09:11:09;;;;;;;3.20;2.45;;;45.60;99.90;;;;;;5014158;28;20072;-84
2022/07/24 09:16:25;;;;;;;3.35;2.60;;;45.60;99.90;;;;;;5036078;28;20404;-84
2022/07/24 09:19:05;;;;;;;3.08;2.45;;;45.60;99.90;;;;;;5037064;28;20021;-83
2022/07/24 09:21:36;;;;;;;4.57;2.42;;;47.40;99.90;;;;;;5017124;28;20039;-83
2022/07/24 09:24:18;;;;;;;2.85;2.63;;;45.40;99.90;;;;;;5020764;28;20019;-83
2022/07/24 09:26:45;;;;;;;2.90;2.20;;;44.20;99.90;;;;;;5035524;28;20117;-83
2022/07/24 09:29:12;;;;;;;3.30;2.42;;;44.50;99.90;;;;;;5039347;28;20043;-84
2022/07/24 09:31:53;;;;;;;3.40;2.20;;;41.80;99.90;;;;;;5056695;28;20028;-84
2022/07/24 09:34:18;;;;;;;6.22;2.00;;;44.80;99.90;;;;;;5051910;28;20094;-84
2022/07/24 09:37:04;;;;;;;2.33;1.98;;;45.80;99.90;;;;;;5037937;28;20137;-83
2022/07/24 09:39:34;;;;;;;1.95;1.85;;;42.70;99.90;;;;;;5037184;28;20026;-83
2022/07/24 09:42:01;;;;;;;2.38;1.85;;;41.20;99.90;;;;;;5018015;28;20048;-84
2022/07/24 09:44:29;;;;;;;3.92;2.15;;;39.00;99.90;;;;;;5056342;28;20029;-83
2022/07/24 09:47:06;;;;;;;3.08;1.95;;;36.90;99.90;;;;;;5056516;28;20580;-83
2022/07/24 09:49:33;;;;;;;3.33;1.77;;;35.40;99.90;;;;;;5056254;28;20024;-83
2022/07/24 09:52:04;;;;;;;2.35;2.03;;;34.70;99.90;;;;;;5056205;28;20017;-84
2022/07/24 09:54:37;;;;;;;4.25;2.03;;;33.50;99.90;;;;;;5051844;28;20056;-83
2022/07/24 09:57:24;;;;;;;3.50;2.08;;;32.90;99.90;;;;;;5035635;28;20041;-83
2022/07/24 09:59:58;;;;;;;2.40;2.20;;;32.70;99.90;;;;;;5028956;28;20025;-83
2022/07/24 10:02:29;;;;;;;2.13;2.03;;;32.20;99.90;;;;;;5037655;28;20524;-84
2022/07/24 10:04:56;;;;;;;3.88;2.20;;;32.60;99.90;;;;;;5055884;28;20029;-84
2022/07/24 10:07:23;;;;;;;2.60;1.98;;;34.50;99.90;;;;;;5055872;28;20345;-84
2022/07/24 10:09:51;;;;;;;2.30;2.05;;;36.00;99.90;;;;;;5056032;28;20025;-83
2022/07/24 10:12:28;;;;;;;2.60;2.03;;;35.00;99.90;;;;;;5053416;28;20543;-83
2022/07/24 10:14:56;;;;;;;3.60;2.20;;;35.90;99.90;;;;;;5047748;28;20084;-84
2022/07/24 10:17:46;;;;;;;3.40;1.88;;;36.60;99.90;;;;;;5039904;28;20049;-83
2022/07/24 10:20:21;;;;;;;3.28;2.10;;;38.10;99.90;;;;;;5049343;28;20071;-83
2022/07/24 10:23:27;;;;;;;3.38;2.15;;;39.50;99.90;;;;;;5015875;28;20033;-83
2022/07/24 10:25:56;;;;;;;2.90;2.10;;;42.70;99.90;;;;;;5027120;28;20134;-83
2022/07/24 10:28:36;;;;;;;2.20;2.00;;;41.20;99.90;;;;;;5036327;28;20022;-83
2022/07/24 10:31:04;;;;;;;2.55;1.90;;;39.50;99.90;;;;;;5024430;28;20588;-84
2022/07/24 10:33:30;;;;;;;2.75;2.03;;;38.30;99.90;;;;;;5037395;28;20049;-83
2022/07/24 10:36:00;;;;;;;3.20;1.90;;;38.00;99.90;;;;;;5055874;28;20033;-83
2022/07/24 10:38:35;;;;;;;2.22;2.00;;;36.80;99.90;;;;;;5055374;28;20048;-83
2022/07/24 10:41:08;;;;;;;2.80;1.80;;;37.30;99.90;;;;;;5055482;28;20036;-83
2022/07/24 10:43:34;;;;;;;2.30;2.10;;;36.00;99.90;;;;;;5055175;28;20028;-83
2022/07/24 10:45:59;;;;;;;2.05;1.95;;;36.10;99.90;;;;;;5055174;28;20025;-83
2022/07/24 10:48:27;;;;;;;2.05;1.95;;;37.30;99.90;;;;;;5055677;28;20029;-83
2022/07/24 10:51:00;;;;;;;2.72;2.00;;;39.30;99.90;;;;;;5055495;28;20104;-83
2022/07/24 10:53:28;;;;;;;2.40;2.20;;;40.00;99.90;;;;;;5054991;28;20025;-83
2022/07/24 10:56:13;;;;;;;2.55;1.80;;;42.10;99.90;;;;;;5055850;28;20037;-84
2022/07/24 10:59:00;;;;;;;4.18;2.20;;;38.80;99.90;;;;;;5055705;28;20033;-83
2022/07/24 11:01:30;;;;;;;2.33;2.13;;;40.20;99.90;;;;;;5056258;28;20078;-83
2022/07/24 11:03:57;;;;;;;2.10;1.92;;;40.80;99.90;;;;;;5055696;28;20049;-84
2022/07/24 11:06:39;;;;;;;4.03;2.13;;;39.70;99.90;;;;;;5056026;28;20021;-83
2022/07/24 11:09:05;;;;;;;5.47;2.28;;;41.20;99.90;;;;;;5055297;28;20044;-83
2022/07/24 11:11:31;;;;;;;2.28;2.10;;;39.70;99.90;;;;;;5035625;28;20369;-83
2022/07/24 11:13:57;;;;;;;5.07;2.40;;;38.30;99.90;;;;;;5023610;28;20046;-83
2022/07/24 11:16:30;;;;;;;8.98;2.35;;;37.90;99.90;;;;;;5038302;28;20041;-84
2022/07/24 11:18:56;;;;;;;5.50;2.10;;;35.30;99.90;;;;;;5016197;28;20381;-84
2022/07/24 11:21:30;;;;;;;2.88;1.98;;;35.20;99.90;;;;;;5031909;28;20071;-83
2022/07/24 11:24:14;;;;;;;2.90;2.08;;;34.20;99.90;;;;;;5034985;28;20389;-83
2022/07/24 11:26:51;;;;;;;3.72;2.00;;;33.70;99.90;;;;;;5035514;28;20028;-84
2022/07/24 11:29:19;;;;;;;2.30;2.08;;;34.00;99.90;;;;;;5016664;28;20071;-83
2022/07/24 11:31:53;;;;;;;3.55;2.50;;;33.60;99.90;;;;;;5016476;28;20071;-83
2022/07/24 11:34:18;;;;;;;3.53;2.00;;;33.40;99.90;;;;;;5034627;28;20096;-84
2022/07/24 11:36:47;;;;;;;2.30;1.92;;;33.40;99.90;;;;;;5035338;28;20052;-83
2022/07/24 11:39:14;;;;;;;;;;;33.20;99.90;;;;;;5035899;28;20053;-83
2022/07/24 11:41:51;;;;;;;2.53;2.00;;;33.50;99.90;;;;;;5037372;28;20288;-83
2022/07/24 11:44:31;;;;;;;2.17;1.98;;;32.80;99.90;;;;;;5035427;28;20045;-83
2022/07/24 11:47:19;;;;;;;2.38;2.15;;;32.80;99.90;;;;;;5024448;28;20430;-83
2022/07/24 11:49:48;;;;;;;3.72;1.98;;;32.70;99.90;;;;;;5017907;28;20038;-83
2022/07/24 11:52:18;;;;;;;3.15;1.67;;;32.90;99.90;;;;;;5026224;28;20543;-83
2022/07/24 11:54:46;;;;;;;5.15;2.25;;;32.80;99.90;;;;;;5026999;28;20034;-83
2022/07/24 11:57:23;;;;;;;4.22;1.85;;;32.40;99.90;;;;;;5046826;28;20017;-83
2022/07/24 11:59:50;;;;;;;2.58;1.95;;;32.90;99.90;;;;;;5049189;28;20017;-83
2022/07/24 12:02:16;;;;;;;2.90;1.75;;;33.20;99.90;;;;;;5027380;28;20366;-83
2022/07/24 12:04:43;;;;;;;2.25;1.80;;;32.80;99.90;;;;;;5024818;28;20022;-83
2022/07/24 12:07:11;;;;;;;3.83;1.92;;;33.50;99.90;;;;;;5034997;28;20071;-83
2022/07/24 12:09:47;;;;;;;2.93;1.87;;;33.50;99.90;;;;;;5034432;28;20017;-84
2022/07/24 12:12:28;;;;;;;2.15;1.80;;;33.10;99.90;;;;;;5030568;28;20339;-83
2022/07/24 12:15:07;;;;;;;3.72;1.73;;;32.90;99.90;;;;;;5034730;28;20037;-83
2022/07/24 12:17:35;;;;;;;3.88;1.80;;;32.50;99.90;;;;;;5034511;28;20381;-83
2022/07/24 12:20:05;;;;;;;3.93;1.60;;;32.70;99.90;;;;;;5033997;28;20021;-84
2022/07/24 12:22:31;;;;;;;2.20;1.58;;;33.10;99.90;;;;;;5032868;28;20087;-84
2022/07/24 12:24:58;;;;;;;2.88;1.73;;;32.70;99.90;;;;;;5034595;28;20025;-83
2022/07/24 12:27:44;;;;;;;2.88;1.63;;;32.40;99.90;;;;;;5034601;28;20507;-83
2022/07/24 12:30:31;;;;;;;2.25;1.50;;;32.40;99.90;;;;;;5034485;28;20017;-83
2022/07/24 12:33:06;;;;;;;2.85;2.05;;;32.40;99.90;;;;;;5034464;28;20049;-84
2022/07/24 12:35:56;;;;;;;1.80;1.50;;;31.90;99.90;;;;;;5035697;28;20052;-84
2022/07/24 12:38:26;;;;;;;1.85;1.60;;;32.00;99.90;;;;;;5020337;28;20026;-83
2022/07/24 12:41:06;;;;;;;1.88;1.50;;;32.20;99.90;;;;;;5026659;28;20014;-83
2022/07/24 12:43:33;;;;;;;1.55;1.38;;;32.30;99.90;;;;;;5022201;28;20083;-83
2022/07/24 12:46:09;;;;;;;1.52;1.45;;;32.50;99.90;;;;;;5048072;28;20033;-83
2022/07/24 12:48:35;;;;;;;1.95;1.40;;;32.60;99.90;;;;;;5045577;28;20026;-83
2022/07/24 12:51:08;;;;;;;1.98;1.77;;;32.80;99.90;;;;;;5024728;28;20068;-83